Time;durP1;ratioP1;P1;durP2;ratioP2;P2;SDS_P1;SDS_P2;PMS_P1;PMS_P2;Temp;Humidity;BMP_temperature;BMP_pressure;BME280_temperature;BME280_humidity;BME280_pressure;Samples;Min_cycle;Max_cycle;Signal;HPM_P1;HPM_P2
2023/05/03 00:03:08;;;;;;;4.05;1.90;;;;;;;-146.07;100.00;70291.31;10418657;28;20411;-74
2023/05/03 00:08:08;;;;;;;5.78;1.83;;;;;;;-146.07;100.00;70291.31;10420847;28;20021;-73
2023/05/03 00:13:09;;;;;;;2.67;1.65;;;;;;;-146.07;100.00;70291.31;10420600;28;20075;-72
2023/05/03 00:18:10;;;;;;;13.88;2.17;;;;;;;-146.07;100.00;70291.31;10401547;28;20811;-72
2023/05/03 00:23:10;;;;;;;3.45;1.63;;;;;;;-146.07;100.00;70291.31;10420072;28;20521;-73
2023/05/03 00:28:10;;;;;;;3.40;1.90;;;;;;;-146.07;100.00;70291.31;10401568;28;20037;-73
2023/05/03 00:33:11;;;;;;;3.75;2.10;;;;;;;-146.07;100.00;70291.31;10420369;28;20063;-74
2023/05/03 00:38:15;;;;;;;2.88;2.00;;;;;;;-146.07;100.00;70291.31;10417549;28;20407;-73
2023/05/03 00:43:15;;;;;;;6.25;2.35;;;;;;;-146.07;100.00;70291.31;10408844;28;20051;-73
2023/05/03 00:48:17;;;;;;;7.38;2.13;;;;;;;-146.07;100.00;70291.31;10405456;28;20029;-73
2023/05/03 00:53:18;;;;;;;4.78;2.10;;;;;;;-146.07;100.00;70291.31;10419945;28;20040;-74
2023/05/03 00:58:20;;;;;;;4.15;1.80;;;;;;;-146.07;100.00;70291.31;10420382;28;20028;-73
2023/05/03 01:03:20;;;;;;;3.83;2.22;;;;;;;-146.07;100.00;70291.31;10419360;28;20120;-73
2023/05/03 01:08:56;;;;;;;3.83;2.38;;;;;;;-146.07;100.00;70291.31;10419476;28;20035;-72
2023/05/03 01:14:33;;;;;;;2.40;1.85;;;;;;;-146.07;100.00;70291.31;10384853;28;20044;-74
2023/05/03 01:19:39;;;;;;;2.85;1.73;;;;;;;-146.07;100.00;70291.31;10418145;28;20036;-72
2023/05/03 01:24:41;;;;;;;3.60;2.13;;;;;;;-146.07;100.00;70291.31;10417500;28;20082;-72
2023/05/03 01:29:42;;;;;;;6.15;2.38;;;;;;;-146.07;100.00;70291.31;10417943;28;20036;-73
2023/05/03 01:35:07;;;;;;;6.80;2.20;;;;;;;-146.07;100.00;70291.31;10417710;28;20044;-74
2023/05/03 01:40:10;;;;;;;4.00;1.88;;;;;;;-146.07;100.00;70291.31;10403911;28;20152;-73
2023/05/03 01:45:11;;;;;;;5.35;2.35;;;;;;;-146.07;100.00;70291.31;10402433;28;20048;-75
2023/05/03 01:50:11;;;;;;;4.40;2.50;;;;;;;-146.07;100.00;70291.31;10417015;28;20102;-74
2023/05/03 01:55:12;;;;;;;4.80;2.20;;;;;;;-146.07;100.00;70291.31;10415907;28;20476;-75
2023/05/03 02:00:13;;;;;;;2.40;1.92;;;;;;;-146.07;100.00;70291.31;10417135;28;20112;-75
2023/05/03 02:05:14;;;;;;;5.53;2.25;;;;;;;-146.07;100.00;70291.31;10415685;28;20060;-75
2023/05/03 02:10:15;;;;;;;4.18;2.03;;;;;;;-146.07;100.00;70291.31;10415336;28;20124;-73
2023/05/03 02:15:15;;;;;;;7.75;2.08;;;;;;;-146.07;100.00;70291.31;10415684;28;20039;-73
2023/05/03 02:20:16;;;;;;;5.38;2.35;;;;;;;-146.07;100.00;70291.31;10415314;28;20025;-73
2023/05/03 02:25:16;;;;;;;6.40;2.35;;;;;;;-146.07;100.00;70291.31;10415020;28;20029;-75
2023/05/03 02:30:17;;;;;;;2.33;1.77;;;;;;;-146.07;100.00;70291.31;10415528;28;20459;-74
2023/05/03 02:35:17;;;;;;;4.88;2.30;;;;;;;-146.07;100.00;70291.31;10414948;28;20036;-75
2023/05/03 02:40:18;;;;;;;3.55;2.20;;;;;;;-146.07;100.00;70291.31;10399467;28;20147;-75
2023/05/03 02:45:18;;;;;;;2.28;1.75;;;;;;;-146.07;100.00;70291.31;10414596;28;20033;-73
2023/05/03 02:50:18;;;;;;;2.83;1.95;;;;;;;-146.07;100.00;70291.31;10402002;28;20039;-73
2023/05/03 02:55:19;;;;;;;4.05;2.08;;;;;;;-146.07;100.00;70291.31;10427804;28;20903;-73
2023/05/03 03:00:20;;;;;;;10.80;2.53;;;;;;;-146.07;100.00;70291.31;10428093;28;20056;-73
2023/05/03 03:05:20;;;;;;;4.40;2.67;;;;;;;-146.07;100.00;70291.31;10409334;28;20074;-73
2023/05/03 03:10:21;;;;;;;3.13;1.88;;;;;;;-146.07;100.00;70291.31;10427663;28;20403;-73
2023/05/03 03:15:22;;;;;;;5.63;2.72;;;;;;;-146.07;100.00;70291.31;10427693;28;20108;-73
2023/05/03 03:20:22;;;;;;;3.40;2.33;;;;;;;-146.07;100.00;70291.31;10424166;28;20044;-74
2023/05/03 03:25:23;;;;;;;4.25;2.42;;;;;;;-146.07;100.00;70291.31;10414654;28;20514;-73
2023/05/03 03:30:27;;;;;;;7.05;2.72;;;;;;;-146.07;100.00;70291.31;10393512;28;20039;-73
2023/05/03 03:35:27;;;;;;;6.10;2.28;;;;;;;-146.07;100.00;70291.31;10385404;28;20025;-74
2023/05/03 03:40:28;;;;;;;2.65;1.98;;;;;;;-146.07;100.00;70291.31;10399402;28;20757;-76
2023/05/03 03:45:28;;;;;;;5.22;2.25;;;;;;;-146.07;100.00;70291.31;10427457;28;20028;-72
2023/05/03 03:50:29;;;;;;;3.75;2.38;;;;;;;-146.07;100.00;70291.31;10427072;28;20447;-73
2023/05/03 03:55:30;;;;;;;8.57;2.90;;;;;;;-146.07;100.00;70291.31;10426799;28;20078;-71
2023/05/03 04:00:31;;;;;;;3.92;2.22;;;;;;;-146.07;100.00;70291.31;10413798;28;20033;-73
2023/05/03 04:05:31;;;;;;;12.15;2.40;;;;;;;-146.07;100.00;70291.31;10421881;28;20403;-77
2023/05/03 04:10:32;;;;;;;7.32;2.85;;;;;;;-146.07;100.00;70291.31;10421660;28;20538;-71
2023/05/03 04:15:32;;;;;;;3.47;3.17;;;;;;;-146.07;100.00;70291.31;10419643;28;20025;-72
2023/05/03 04:20:33;;;;;;;3.10;2.53;;;;;;;-146.07;100.00;70291.31;10419670;28;20438;-71
2023/05/03 04:25:35;;;;;;;5.20;3.03;;;;;;;-146.07;100.00;70291.31;10419550;28;20435;-70
2023/05/03 04:30:36;;;;;;;5.68;3.40;;;;;;;-146.07;100.00;70291.31;10418159;28;20029;-72
2023/05/03 04:35:37;;;;;;;6.47;3.13;;;;;;;-146.07;100.00;70291.31;10418725;28;20029;-70
2023/05/03 04:40:38;;;;;;;4.35;2.63;;;;;;;-146.07;100.00;70291.31;10409139;28;20891;-71
2023/05/03 04:45:39;;;;;;;7.67;3.50;;;;;;;-146.07;100.00;70291.31;10415227;28;20379;-72
2023/05/03 04:50:39;;;;;;;4.97;3.50;;;;;;;-146.07;100.00;70291.31;10400133;28;20041;-71
2023/05/03 04:55:40;;;;;;;5.77;3.10;;;;;;;-146.07;100.00;70291.31;10417617;28;20032;-72
2023/05/03 05:00:41;;;;;;;5.67;3.13;;;;;;;-146.07;100.00;70291.31;10414939;28;20774;-72
2023/05/03 05:05:42;;;;;;;4.85;3.40;;;;;;;-146.07;100.00;70291.31;10398027;28;20276;-71
2023/05/03 05:10:42;;;;;;;7.25;3.83;;;;;;;-146.07;100.00;70291.31;10414816;28;20029;-71
2023/05/03 05:15:43;;;;;;;5.50;3.40;;;;;;;-146.07;100.00;70291.31;10417064;28;20033;-71
2023/05/03 05:20:43;;;;;;;4.70;2.90;;;;;;;-146.07;100.00;70291.31;10417142;28;20053;-71
2023/05/03 05:25:44;;;;;;;6.15;3.17;;;;;;;-146.07;100.00;70291.31;10416665;28;20293;-74
2023/05/03 05:30:44;;;;;;;6.90;3.08;;;;;;;-146.07;100.00;70291.31;10415932;28;20047;-72
2023/05/03 05:35:47;;;;;;;43.47;3.75;;;;;;;-146.07;100.00;70291.31;10416688;28;20028;-71
2023/05/03 05:40:47;;;;;;;3.88;2.47;;;;;;;-146.07;100.00;70291.31;10413038;28;20044;-71
2023/05/03 05:45:48;;;;;;;4.43;2.88;;;;;;;-146.07;100.00;70291.31;10415876;28;20491;-72
2023/05/03 05:50:49;;;;;;;3.80;2.60;;;;;;;-146.07;100.00;70291.31;10398385;28;20039;-72
2023/05/03 05:55:49;;;;;;;5.22;2.63;;;;;;;-146.07;100.00;70291.31;10415144;28;20025;-73
2023/05/03 06:00:50;;;;;;;11.02;3.38;;;;;;;-146.07;100.00;70291.31;10397362;28;20037;-73
2023/05/03 06:05:50;;;;;;;5.68;2.55;;;;;;;-146.07;100.00;70291.31;10415366;28;20399;-73
2023/05/03 06:10:52;;;;;;;5.60;3.10;;;;;;;-146.07;100.00;70291.31;10397232;28;20037;-73
2023/05/03 06:15:52;;;;;;;4.85;3.55;;;;;;;-146.07;100.00;70291.31;10415510;28;20760;-73
2023/05/03 06:20:53;;;;;;;10.38;3.25;;;;;;;-146.07;100.00;70291.31;10414260;28;20020;-73
2023/05/03 06:25:54;;;;;;;6.63;3.55;;;;;;;-146.07;100.00;70291.31;10414286;28;20854;-72
2023/05/03 06:31:00;;;;;;;9.00;3.08;;;;;;;-146.07;100.00;70291.31;10375030;28;20112;-72
2023/05/03 06:36:00;;;;;;;6.10;3.05;;;;;;;-146.07;100.00;70291.31;10352053;28;20475;-72
2023/05/03 06:41:01;;;;;;;9.33;4.20;;;;;;;-146.07;100.00;70291.31;10387901;28;20170;-72
2023/05/03 06:46:02;;;;;;;7.00;3.08;;;;;;;-146.07;100.00;70291.31;10403799;28;20283;-72
2023/05/03 06:51:14;;;;;;;7.57;2.67;;;;;;;-146.07;100.00;70291.31;10361491;28;20102;-72
2023/05/03 06:56:18;;;;;;;5.57;3.13;;;;;;;-146.07;100.00;70291.31;10359416;28;20710;-72
2023/05/03 07:01:19;;;;;;;7.25;2.88;;;;;;;-146.07;100.00;70291.31;10361546;28;20082;-72
2023/05/03 07:06:21;;;;;;;5.90;2.85;;;;;;;-146.07;100.00;70291.31;10373068;28;20034;-72
2023/05/03 07:11:25;;;;;;;6.25;3.45;;;;;;;-146.07;100.00;70291.31;10362064;28;20472;-72
2023/05/03 07:16:25;;;;;;;8.43;2.63;;;;;;;-146.07;100.00;70291.31;10374787;28;20768;-72
2023/05/03 07:21:25;;;;;;;8.57;2.63;;;;;;;-146.07;100.00;70291.31;10359511;28;20028;-72
2023/05/03 07:26:26;;;;;;;7.70;3.10;;;;;;;-146.07;100.00;70291.31;10364519;28;20044;-71
2023/05/03 07:31:27;;;;;;;4.95;3.42;;;;;;;-146.07;100.00;70291.31;10372791;28;20589;-72
2023/05/03 07:36:27;;;;;;;5.70;3.13;;;;;;;-146.07;100.00;70291.31;10376358;28;20082;-71
2023/05/03 07:41:27;;;;;;;9.07;4.20;;;;;;;-146.07;100.00;70291.31;10395721;28;20053;-72
2023/05/03 07:46:33;;;;;;;10.73;3.00;;;;;;;-146.07;100.00;70291.31;10421454;28;20037;-71
2023/05/03 07:51:35;;;;;;;8.82;3.55;;;;;;;-146.07;100.00;70291.31;10421216;28;20381;-72
2023/05/03 07:56:36;;;;;;;5.68;3.30;;;;;;;-146.07;100.00;70291.31;10420312;28;20348;-72
2023/05/03 08:01:37;;;;;;;8.00;3.53;;;;;;;-146.07;100.00;70291.31;10420641;28;20040;-73
2023/05/03 08:06:37;;;;;;;9.88;3.25;;;;;;;-146.07;100.00;70291.31;10420850;28;20033;-71
2023/05/03 08:11:38;;;;;;;20.17;11.30;;;;;;;-146.07;100.00;70291.31;10420551;28;20434;-71
2023/05/03 08:16:38;;;;;;;10.35;4.97;;;;;;;-146.07;100.00;70291.31;10420048;28;20407;-72
2023/05/03 08:21:39;;;;;;;6.88;3.67;;;;;;;-146.07;100.00;70291.31;10399109;28;20087;-72
2023/05/03 08:26:40;;;;;;;6.93;3.10;;;;;;;-146.07;100.00;70291.31;10375961;28;20029;-73
2023/05/03 08:31:40;;;;;;;5.45;2.97;;;;;;;-146.07;100.00;70291.31;10380292;28;20730;-72
2023/05/03 08:36:41;;;;;;;6.23;2.67;;;;;;;-146.07;100.00;70291.31;10375520;28;20048;-72
2023/05/03 08:41:42;;;;;;;5.63;2.80;;;;;;;-146.07;100.00;70291.31;10396098;28;20044;-73
2023/05/03 08:46:42;;;;;;;3.83;2.53;;;;;;;-146.07;100.00;70291.31;10418011;28;20076;-72
2023/05/03 08:51:47;;;;;;;2.50;1.88;;;;;;;-146.07;100.00;70291.31;10418778;28;20174;-73
2023/05/03 08:56:48;;;;;;;4.97;2.30;;;;;;;-146.07;100.00;70291.31;10418425;28;20494;-73
2023/05/03 09:01:48;;;;;;;4.35;2.40;;;;;;;-146.07;100.00;70291.31;10418690;28;20421;-72
2023/05/03 09:06:49;;;;;;;6.13;2.60;;;;;;;-146.07;100.00;70291.31;10418491;28;20040;-73
2023/05/03 09:11:49;;;;;;;4.10;2.50;;;;;;;-146.07;100.00;70291.31;10416992;28;20502;-72
2023/05/03 09:16:50;;;;;;;7.38;3.03;;;;;;;-146.07;100.00;70291.31;10417986;28;20801;-73
2023/05/03 09:21:50;;;;;;;5.53;2.03;;;;;;;-146.07;100.00;70291.31;10417700;28;20432;-73
2023/05/03 09:26:51;;;;;;;6.20;2.57;;;;;;;-146.07;100.00;70291.31;10417608;28;21215;-74
2023/05/03 09:32:00;;;;;;;4.95;2.38;;;;;;;-146.07;100.00;70291.31;10417333;28;21141;-73
2023/05/03 09:37:00;;;;;;;5.70;2.85;;;;;;;-146.07;100.00;70291.31;10416426;28;20064;-74
2023/05/03 09:42:17;;;;;;;10.35;2.50;;;;;;;-146.07;100.00;70291.31;10407016;28;20531;-74
2023/05/03 09:47:18;;;;;;;5.47;2.00;;;;;;;-146.07;100.00;70291.31;10417074;28;20457;-73
2023/05/03 09:52:21;;;;;;;3.08;2.05;;;;;;;-146.07;100.00;70291.31;10399856;28;20029;-73
2023/05/03 09:57:23;;;;;;;2.78;1.90;;;;;;;-146.07;100.00;70291.31;10384614;28;20063;-73
2023/05/03 10:02:23;;;;;;;3.45;1.60;;;;;;;-146.07;100.00;70291.31;10415903;28;20033;-74
2023/05/03 10:07:30;;;;;;;3.17;1.92;;;;;;;-146.07;100.00;70291.31;10415958;28;20400;-73
2023/05/03 10:12:33;;;;;;;;;;;;;;;-146.07;100.00;70291.31;10415866;28;20348;-73
2023/05/03 10:17:36;;;;;;;3.10;2.15;;;;;;;-146.07;100.00;70291.31;10425228;28;20212;-73
2023/05/03 10:23:08;;;;;;;3.95;2.00;;;;;;;-146.07;100.00;70291.31;10415487;28;20025;-73
2023/05/03 10:28:09;;;;;;;3.50;2.10;;;;;;;-146.07;100.00;70291.31;10413233;28;20029;-73
2023/05/03 10:33:12;;;;;;;8.40;2.80;;;;;;;-146.07;100.00;70291.31;10414629;28;20587;-74
2023/05/03 10:38:19;;;;;;;5.38;2.58;;;;;;;-146.07;100.00;70291.31;10414517;28;20045;-73
2023/05/03 10:43:29;;;;;;;5.05;2.50;;;;;;;-146.07;100.00;70291.31;10414087;28;20035;-73
2023/05/03 10:48:31;;;;;;;3.70;2.35;;;;;;;-146.07;100.00;70291.31;10412831;28;20028;-73
2023/05/03 10:53:38;;;;;;;3.40;2.50;;;;;;;-146.07;100.00;70291.31;10415110;28;20117;-72
2023/05/03 10:58:44;;;;;;;3.13;2.53;;;;;;;-146.07;100.00;70291.31;10414579;28;20410;-73
2023/05/03 11:03:53;;;;;;;3.78;2.80;;;;;;;-146.07;100.00;70291.31;10414970;28;20127;-73
2023/05/03 11:08:54;;;;;;;3.80;2.60;;;;;;;-146.07;100.00;70291.31;10413791;28;20025;-73
2023/05/03 11:13:54;;;;;;;5.43;2.40;;;;;;;-146.07;100.00;70291.31;10421787;28;20488;-73
2023/05/03 11:18:55;;;;;;;4.40;2.67;;;;;;;-146.07;100.00;70291.31;10422070;28;20255;-73
2023/05/03 11:23:57;;;;;;;5.18;2.60;;;;;;;-146.07;100.00;70291.31;10422153;28;20049;-73
2023/05/03 11:28:58;;;;;;;4.97;3.10;;;;;;;-146.07;100.00;70291.31;10421774;28;20040;-74
2023/05/03 11:33:59;;;;;;;7.85;3.03;;;;;;;-146.07;100.00;70291.31;10419382;28;20513;-73
2023/05/03 11:38:59;;;;;;;9.18;2.92;;;;;;;-146.07;100.00;70291.31;10419915;28;20080;-74
2023/05/03 11:44:00;;;;;;;6.80;2.83;;;;;;;-146.07;100.00;70291.31;10421939;28;20036;-74
2023/05/03 11:49:01;;;;;;;4.75;2.85;;;;;;;-146.07;100.00;70291.31;10420786;28;20345;-74
2023/05/03 11:54:03;;;;;;;3.90;2.28;;;;;;;-146.07;100.00;70291.31;10420604;28;20017;-73
2023/05/03 11:59:03;;;;;;;16.08;3.10;;;;;;;-146.07;100.00;70291.31;10420983;28;20369;-73
2023/05/03 12:04:04;;;;;;;8.97;2.73;;;;;;;-146.07;100.00;70291.31;10420397;28;20021;-73
2023/05/03 12:09:12;;;;;;;4.57;2.70;;;;;;;-146.07;100.00;70291.31;10420291;28;20278;-73
2023/05/03 12:14:13;;;;;;;6.38;2.92;;;;;;;-146.07;100.00;70291.31;10419882;28;20321;-73
2023/05/03 12:19:24;;;;;;;6.95;2.95;;;;;;;-146.07;100.00;70291.31;10419717;28;20107;-73
2023/05/03 12:24:25;;;;;;;5.13;3.05;;;;;;;-146.07;100.00;70291.31;10418398;28;20521;-74
2023/05/03 12:29:26;;;;;;;7.65;3.08;;;;;;;-146.07;100.00;70291.31;10419686;28;20049;-74
2023/05/03 12:34:26;;;;;;;6.53;3.50;;;;;;;-146.07;100.00;70291.31;10418854;28;20039;-75
2023/05/03 12:39:27;;;;;;;5.53;3.67;;;;;;;-146.07;100.00;70291.31;10413258;28;20488;-74
2023/05/03 12:44:27;;;;;;;8.07;3.53;;;;;;;-146.07;100.00;70291.31;10418562;28;21011;-74
2023/05/03 12:49:28;;;;;;;6.10;3.60;;;;;;;-146.07;100.00;70291.31;10419106;28;20020;-74
2023/05/03 12:54:28;;;;;;;7.72;4.00;;;;;;;-146.07;100.00;70291.31;10418544;28;20650;-74
2023/05/03 12:59:29;;;;;;;7.47;4.20;;;;;;;-146.07;100.00;70291.31;10418467;28;20116;-73
2023/05/03 13:04:31;;;;;;;5.72;3.78;;;;;;;-146.07;100.00;70291.31;10417999;28;20476;-73
2023/05/03 13:09:32;;;;;;;6.82;4.45;;;;;;;-146.07;100.00;70291.31;10417634;28;20457;-73
2023/05/03 13:14:32;;;;;;;6.57;4.45;;;;;;;-146.07;100.00;70291.31;10417665;28;20479;-73
2023/05/03 13:19:33;;;;;;;9.70;4.35;;;;;;;-146.07;100.00;70291.31;10418161;28;20380;-73
2023/05/03 13:24:34;;;;;;;10.35;5.65;;;;;;;-146.07;100.00;70291.31;10417117;28;20099;-73
2023/05/03 13:29:34;;;;;;;5.30;4.10;;;;;;;-146.07;100.00;70291.31;10416954;28;20029;-73
2023/05/03 13:34:35;;;;;;;8.05;5.13;;;;;;;-146.07;100.00;70291.31;10416568;28;20106;-72
2023/05/03 13:39:36;;;;;;;9.18;5.13;;;;;;;-146.07;100.00;70291.31;10384501;28;20054;-72
2023/05/03 13:44:36;;;;;;;12.63;6.85;;;;;;;-146.07;100.00;70291.31;10415912;28;20052;-72
2023/05/03 13:49:36;;;;;;;12.68;7.72;;;;;;;-146.07;100.00;70291.31;10416141;28;20032;-72
2023/05/03 13:54:37;;;;;;;14.07;8.82;;;;;;;-146.07;100.00;70291.31;10416336;28;20032;-72
2023/05/03 13:59:37;;;;;;;12.70;7.82;;;;;;;-146.07;100.00;70291.31;10416186;28;20703;-71
2023/05/03 14:04:38;;;;;;;14.70;9.07;;;;;;;-146.07;100.00;70291.31;10415779;28;20747;-71
2023/05/03 14:09:38;;;;;;;14.60;9.27;;;;;;;-146.07;100.00;70291.31;10415927;28;20749;-71
2023/05/03 14:14:39;;;;;;;17.08;9.77;;;;;;;-146.07;100.00;70291.31;10415038;28;20264;-73
2023/05/03 14:19:40;;;;;;;17.27;12.20;;;;;;;-146.07;100.00;70291.31;10415603;28;20074;-72
2023/05/03 14:24:41;;;;;;;16.27;10.63;;;;;;;-146.07;100.00;70291.31;10415497;28;20608;-72
2023/05/03 14:29:42;;;;;;;12.15;8.77;;;;;;;-146.07;100.00;70291.31;10414767;28;20116;-72
2023/05/03 14:34:42;;;;;;;20.58;9.40;;;;;;;-146.07;100.00;70291.31;10414710;28;20033;-72
2023/05/03 14:39:43;;;;;;;18.60;11.75;;;;;;;-146.07;100.00;70291.31;10410694;28;20423;-72
2023/05/03 14:44:43;;;;;;;15.82;10.75;;;;;;;-146.07;100.00;70291.31;10411484;28;20100;-72
2023/05/03 14:49:44;;;;;;;18.23;11.52;;;;;;;-146.07;100.00;70291.31;10414268;28;20028;-71
2023/05/03 14:54:44;;;;;;;16.13;10.63;;;;;;;-146.07;100.00;70291.31;10414540;28;20029;-72
2023/05/03 14:59:46;;;;;;;21.73;13.65;;;;;;;-146.07;100.00;70291.31;10413593;28;20064;-72
2023/05/03 15:04:49;;;;;;;22.75;12.27;;;;;;;-146.07;100.00;70291.31;10412823;28;20479;-72
2023/05/03 15:09:50;;;;;;;17.45;11.80;;;;;;;-146.07;100.00;70291.31;10395531;28;20061;-72
2023/05/03 15:14:51;;;;;;;23.15;12.73;;;;;;;-146.07;100.00;70291.31;10412031;28;20672;-72
2023/05/03 15:19:51;;;;;;;19.15;11.02;;;;;;;-146.07;100.00;70291.31;10377247;28;20410;-71
2023/05/03 15:24:52;;;;;;;19.20;12.48;;;;;;;-146.07;100.00;70291.31;10393980;28;20119;-73
2023/05/03 15:29:52;;;;;;;16.10;12.13;;;;;;;-146.07;100.00;70291.31;10409520;28;20029;-73
2023/05/03 15:34:53;;;;;;;15.95;10.20;;;;;;;-146.07;100.00;70291.31;10411914;28;20492;-73
2023/05/03 15:39:54;;;;;;;19.05;11.10;;;;;;;-146.07;100.00;70291.31;10411372;28;20049;-73
2023/05/03 15:44:54;;;;;;;15.00;10.00;;;;;;;-146.07;100.00;70291.31;10411458;28;20032;-73
2023/05/03 15:49:56;;;;;;;15.25;11.13;;;;;;;-146.07;100.00;70291.31;10411102;28;20103;-73
2023/05/03 15:55:01;;;;;;;18.70;12.68;;;;;;;-146.07;100.00;70291.31;10411910;28;20021;-71
2023/05/03 16:00:06;;;;;;;16.35;10.63;;;;;;;-146.07;100.00;70291.31;10414477;28;20049;-73
2023/05/03 16:05:08;;;;;;;17.70;10.63;;;;;;;-146.07;100.00;70291.31;10408317;28;20476;-73
2023/05/03 16:10:09;;;;;;;13.27;10.13;;;;;;;-146.07;100.00;70291.31;10415640;28;20025;-72
2023/05/03 16:15:11;;;;;;;13.52;8.05;;;;;;;-146.07;100.00;70291.31;10416181;28;20033;-72
2023/05/03 16:20:11;;;;;;;15.43;8.50;;;;;;;-146.07;100.00;70291.31;10414045;28;20450;-71
2023/05/03 16:25:12;;;;;;;13.85;10.23;;;;;;;-146.07;100.00;70291.31;10390581;28;20039;-74
2023/05/03 16:30:13;;;;;;;14.82;10.93;;;;;;;-146.07;100.00;70291.31;10415961;28;20025;-75
2023/05/03 16:35:14;;;;;;;13.27;9.98;;;;;;;-146.07;100.00;70291.31;10415414;28;20043;-75
2023/05/03 16:40:15;;;;;;;15.98;9.77;;;;;;;-146.07;100.00;70291.31;10409849;28;20051;-74
2023/05/03 16:45:15;;;;;;;13.60;9.80;;;;;;;-146.07;100.00;70291.31;10416416;28;20032;-75
2023/05/03 16:50:17;;;;;;;18.17;10.68;;;;;;;-146.07;100.00;70291.31;10417212;28;20033;-74
2023/05/03 16:55:20;;;;;;;13.85;9.05;;;;;;;-146.07;100.00;70291.31;10417392;28;20032;-75
2023/05/03 17:00:21;;;;;;;14.25;8.93;;;;;;;-146.07;100.00;70291.31;10417082;28;20033;-74
2023/05/03 17:05:31;;;;;;;15.93;10.70;;;;;;;-146.07;100.00;70291.31;10416913;28;20028;-75
2023/05/03 17:10:32;;;;;;;17.40;10.98;;;;;;;-146.07;100.00;70291.31;10407981;28;20033;-75
2023/05/03 17:15:33;;;;;;;16.13;9.48;;;;;;;-146.07;100.00;70291.31;10416887;28;20025;-76
2023/05/03 17:20:35;;;;;;;12.95;9.70;;;;;;;-146.07;100.00;70291.31;10416005;28;20025;-76
2023/05/03 17:25:35;;;;;;;19.17;11.40;;;;;;;-146.07;100.00;70291.31;10406236;28;20041;-76
2023/05/03 17:30:36;;;;;;;18.60;11.50;;;;;;;-146.07;100.00;70291.31;10415742;28;20041;-76
2023/05/03 17:35:37;;;;;;;17.85;10.23;;;;;;;-146.07;100.00;70291.31;10414579;28;20024;-78
2023/05/03 17:40:41;;;;;;;20.98;12.85;;;;;;;-146.07;100.00;70291.31;10388838;28;20132;-75
2023/05/03 17:45:43;;;;;;;18.50;12.98;;;;;;;-146.07;100.00;70291.31;10364662;28;20029;-75
2023/05/03 17:50:45;;;;;;;25.52;14.35;;;;;;;-146.07;100.00;70291.31;10374478;28;20432;-78
2023/05/03 17:55:45;;;;;;;20.25;14.40;;;;;;;-146.07;100.00;70291.31;10370589;28;20026;-77
2023/05/03 18:00:47;;;;;;;24.75;16.13;;;;;;;-146.07;100.00;70291.31;10374017;28;20337;-76
2023/05/03 18:05:48;;;;;;;22.92;14.57;;;;;;;-146.07;100.00;70291.31;10373174;28;20029;-74
2023/05/03 18:10:49;;;;;;;23.63;15.05;;;;;;;-146.07;100.00;70291.31;10373189;28;20793;-76
2023/05/03 18:15:49;;;;;;;25.30;16.10;;;;;;;-146.07;100.00;70291.31;10375718;28;20500;-72
2023/05/03 18:21:01;;;;;;;21.48;13.80;;;;;;;-146.07;100.00;70291.31;10374142;28;20025;-76
2023/05/03 18:26:02;;;;;;;25.80;15.80;;;;;;;-146.07;100.00;70291.31;10373693;28;20416;-77
2023/05/03 18:31:03;;;;;;;23.30;14.93;;;;;;;-146.07;100.00;70291.31;10377196;28;20523;-70
2023/05/03 18:36:07;;;;;;;24.88;14.82;;;;;;;-146.07;100.00;70291.31;10337643;28;20378;-70
2023/05/03 18:41:12;;;;;;;22.13;14.57;;;;;;;-146.07;100.00;70291.31;10375193;28;20141;-69
2023/05/03 18:46:17;;;;;;;26.45;16.20;;;;;;;-146.07;100.00;70291.31;10377563;28;20029;-79
2023/05/03 18:51:18;;;;;;;28.23;18.60;;;;;;;-146.07;100.00;70291.31;10377558;28;20037;-72
2023/05/03 18:56:19;;;;;;;24.63;16.60;;;;;;;-146.07;100.00;70291.31;10382505;28;20972;-68
2023/05/03 19:01:19;;;;;;;27.00;16.13;;;;;;;-146.07;100.00;70291.31;10384658;28;20039;-72
2023/05/03 19:06:20;;;;;;;23.23;14.20;;;;;;;-146.07;100.00;70291.31;10379154;28;20098;-72
2023/05/03 19:11:20;;;;;;;22.35;13.43;;;;;;;-146.07;100.00;70291.31;10360151;28;20763;-70
2023/05/03 19:16:21;;;;;;;19.35;12.75;;;;;;;-146.07;100.00;70291.31;10372992;28;20361;-71
2023/05/03 19:21:21;;;;;;;19.60;12.50;;;;;;;-146.07;100.00;70291.31;10378363;28;20025;-75
2023/05/03 19:26:22;;;;;;;16.33;12.10;;;;;;;-146.07;100.00;70291.31;10380655;28;20037;-76
2023/05/03 19:31:22;;;;;;;16.80;12.75;;;;;;;-146.07;100.00;70291.31;10382504;28;20275;-76
2023/05/03 19:36:23;;;;;;;16.80;11.27;;;;;;;-146.07;100.00;70291.31;10384671;28;20029;-75
2023/05/03 19:41:24;;;;;;;17.83;12.07;;;;;;;-146.07;100.00;70291.31;10366881;28;20361;-75
2023/05/03 19:46:24;;;;;;;18.42;12.43;;;;;;;-146.07;100.00;70291.31;10391238;28;20038;-75
2023/05/03 19:51:26;;;;;;;19.02;12.75;;;;;;;-146.07;100.00;70291.31;10384441;28;20021;-76
2023/05/03 19:56:27;;;;;;;17.13;12.75;;;;;;;-146.07;100.00;70291.31;10374701;28;20128;-77
2023/05/03 20:01:27;;;;;;;20.90;12.55;;;;;;;-146.07;100.00;70291.31;10383842;28;20475;-76
2023/05/03 20:06:28;;;;;;;16.23;11.60;;;;;;;-146.07;100.00;70291.31;10382378;28;20025;-75
2023/05/03 20:11:29;;;;;;;19.13;11.05;;;;;;;-146.07;100.00;70291.31;10385432;28;20792;-70
2023/05/03 20:16:32;;;;;;;17.50;11.07;;;;;;;-146.07;100.00;70291.31;10385168;28;20025;-70
2023/05/03 20:21:32;;;;;;;17.70;12.10;;;;;;;-146.07;100.00;70291.31;10381607;28;20363;-69
2023/05/03 20:26:32;;;;;;;18.60;11.00;;;;;;;-146.07;100.00;70291.31;10389411;28;20028;-80
2023/05/03 20:31:33;;;;;;;19.25;11.02;;;;;;;-146.07;100.00;70291.31;10390780;28;20797;-78
2023/05/03 20:36:33;;;;;;;19.92;11.48;;;;;;;-146.07;100.00;70291.31;10387840;28;20036;-77
2023/05/03 20:41:34;;;;;;;19.27;11.90;;;;;;;-146.07;100.00;70291.31;10387309;28;20037;-75
2023/05/03 20:46:36;;;;;;;19.02;11.95;;;;;;;-146.07;100.00;70291.31;10363851;28;20646;-75
2023/05/03 20:51:37;;;;;;;19.88;11.98;;;;;;;-146.07;100.00;70291.31;10382008;28;20036;-75
2023/05/03 20:56:37;;;;;;;19.17;12.10;;;;;;;-146.07;100.00;70291.31;10387217;28;20377;-76
2023/05/03 21:01:39;;;;;;;16.35;11.57;;;;;;;-146.07;100.00;70291.31;10381607;28;20028;-77
2023/05/03 21:06:41;;;;;;;15.43;9.85;;;;;;;-146.07;100.00;70291.31;10385496;28;20484;-77
2023/05/03 21:11:41;;;;;;;16.20;11.50;;;;;;;-146.07;100.00;70291.31;10396695;28;20061;-76
2023/05/03 21:16:42;;;;;;;21.58;12.00;;;;;;;-146.07;100.00;70291.31;10386782;28;20098;-76
2023/05/03 21:21:42;;;;;;;21.67;11.80;;;;;;;-146.07;100.00;70291.31;10390199;28;20526;-77
2023/05/03 21:26:43;;;;;;;23.90;12.52;;;;;;;-146.07;100.00;70291.31;10387759;28;20297;-77
2023/05/03 21:31:43;;;;;;;20.50;13.20;;;;;;;-146.07;100.00;70291.31;10385613;28;20029;-78
2023/05/03 21:36:43;;;;;;;20.87;13.70;;;;;;;-146.07;100.00;70291.31;10404460;28;20037;-73
2023/05/03 21:41:44;;;;;;;18.80;13.00;;;;;;;-146.07;100.00;70291.31;10406024;28;20288;-73
2023/05/03 21:46:45;;;;;;;21.42;13.05;;;;;;;-146.07;100.00;70291.31;10417694;28;20333;-74
2023/05/03 21:51:45;;;;;;;19.00;12.53;;;;;;;-146.07;100.00;70291.31;10416473;28;20016;-75
2023/05/03 21:56:46;;;;;;;21.85;13.20;;;;;;;-146.07;100.00;70291.31;10416407;28;20291;-74
2023/05/03 22:01:47;;;;;;;21.63;13.55;;;;;;;-146.07;100.00;70291.31;10415870;28;20031;-74
2023/05/03 22:06:48;;;;;;;20.38;12.25;;;;;;;-146.07;100.00;70291.31;10363467;28;20353;-74
2023/05/03 22:11:48;;;;;;;20.02;12.27;;;;;;;-146.07;100.00;70291.31;10380606;28;20573;-73
2023/05/03 22:16:48;;;;;;;19.27;12.43;;;;;;;-146.07;100.00;70291.31;10370539;28;20419;-72
2023/05/03 22:21:49;;;;;;;17.30;12.55;;;;;;;-146.07;100.00;70291.31;10366213;28;20311;-73
2023/05/03 22:26:49;;;;;;;23.33;13.63;;;;;;;-146.07;100.00;70291.31;10376918;28;20060;-72